Terminal Aerodrome Forecast
Issued by NWS

Home | Current Version | Previous Version | Text Only | Print | Product List | Glossary On
Versions: 1 2 3 4 5 6 7 8 9 10 11 12 13 14 15 16 17 18 19
000
FTUS43 KLSX 262339
TAFCPS
TAF
KCPS 262339Z 2700/2724 VRB04KT P6SM BKN040
     FM271200 11007KT 4SM SHRA OVC010
     FM271800 23007KT P6SM VCTS OVC015CB
     FM272300 31008KT P6SM BKN030=

USA.gov is the U.S. government's official web portal to all federal, state and local government web resources and services.